sensor_id;sensor_type;location;lat;lon;timestamp;pressure;altitude;pressure_sealevel;temperature;humidity
38912;BME280;28444;48.056;14.408;2023-06-05T00:02:23;97683.47;;;15.82;83.49
38912;BME280;28444;48.056;14.408;2023-06-05T00:05:10;97674.94;;;15.78;83.80
38912;BME280;28444;48.056;14.408;2023-06-05T00:07:57;97678.78;;;15.73;84.11
38912;BME280;28444;48.056;14.408;2023-06-05T00:10:44;97670.56;;;15.63;84.56
38912;BME280;28444;48.056;14.408;2023-06-05T00:13:31;97663.94;;;15.57;85.34
38912;BME280;28444;48.056;14.408;2023-06-05T00:16:18;97661.13;;;15.67;84.63
38912;BME280;28444;48.056;14.408;2023-06-05T00:19:05;97657.44;;;15.74;84.36
38912;BME280;28444;48.056;14.408;2023-06-05T00:21:52;97662.34;;;15.75;84.64
38912;BME280;28444;48.056;14.408;2023-06-05T00:24:40;97659.72;;;15.77;84.59
38912;BME280;28444;48.056;14.408;2023-06-05T00:27:28;97673.13;;;15.71;85.10
38912;BME280;28444;48.056;14.408;2023-06-05T00:30:15;97657.31;;;15.72;84.65
38912;BME280;28444;48.056;14.408;2023-06-05T00:33:02;97658.53;;;15.69;85.22
38912;BME280;28444;48.056;14.408;2023-06-05T00:35:49;97657.56;;;15.76;84.86
38912;BME280;28444;48.056;14.408;2023-06-05T00:38:36;97653.13;;;15.71;84.67
38912;BME280;28444;48.056;14.408;2023-06-05T00:41:23;97663.13;;;15.54;85.86
38912;BME280;28444;48.056;14.408;2023-06-05T00:44:10;97657.09;;;15.46;86.54
38912;BME280;28444;48.056;14.408;2023-06-05T00:46:58;97659.47;;;15.40;86.80
38912;BME280;28444;48.056;14.408;2023-06-05T00:49:46;97662.03;;;15.48;86.92
38912;BME280;28444;48.056;14.408;2023-06-05T00:52:33;97656.75;;;15.52;86.54
38912;BME280;28444;48.056;14.408;2023-06-05T00:55:21;97654.72;;;15.52;86.08
38912;BME280;28444;48.056;14.408;2023-06-05T00:58:08;97651.47;;;15.44;87.07
38912;BME280;28444;48.056;14.408;2023-06-05T01:00:57;97642.31;;;15.30;87.46
38912;BME280;28444;48.056;14.408;2023-06-05T01:03:44;97647.94;;;15.32;87.69
38912;BME280;28444;48.056;14.408;2023-06-05T01:06:32;97647.56;;;15.26;87.51
38912;BME280;28444;48.056;14.408;2023-06-05T01:09:20;97645.63;;;15.28;87.98
38912;BME280;28444;48.056;14.408;2023-06-05T01:15:19;97648.94;;;15.15;88.49
38912;BME280;28444;48.056;14.408;2023-06-05T01:18:15;97651.50;;;15.23;88.21
38912;BME280;28444;48.056;14.408;2023-06-05T01:21:10;97648.34;;;15.16;89.17
38912;BME280;28444;48.056;14.408;2023-06-05T01:24:00;97643.22;;;15.23;88.76
38912;BME280;28444;48.056;14.408;2023-06-05T01:29:53;97646.78;;;15.13;88.90
38912;BME280;28444;48.056;14.408;2023-06-05T01:32:56;97648.03;;;15.22;88.40
38912;BME280;28444;48.056;14.408;2023-06-05T01:35:49;97644.41;;;15.20;88.50
38912;BME280;28444;48.056;14.408;2023-06-05T01:38:39;97641.06;;;15.21;88.39
38912;BME280;28444;48.056;14.408;2023-06-05T01:41:27;97643.34;;;15.25;88.21
38912;BME280;28444;48.056;14.408;2023-06-05T01:44:15;97640.34;;;15.21;87.87
38912;BME280;28444;48.056;14.408;2023-06-05T01:47:02;97653.34;;;15.08;89.05
38912;BME280;28444;48.056;14.408;2023-06-05T01:49:49;97645.09;;;15.08;88.95
38912;BME280;28444;48.056;14.408;2023-06-05T01:52:36;97641.09;;;15.00;88.95
38912;BME280;28444;48.056;14.408;2023-06-05T01:55:26;97641.66;;;14.98;89.57
38912;BME280;28444;48.056;14.408;2023-06-05T01:58:13;97640.34;;;14.99;89.59
38912;BME280;28444;48.056;14.408;2023-06-05T02:01:01;97648.50;;;14.97;89.11
38912;BME280;28444;48.056;14.408;2023-06-05T02:03:49;97645.84;;;14.99;88.68
38912;BME280;28444;48.056;14.408;2023-06-05T02:06:37;97642.53;;;15.01;88.64
38912;BME280;28444;48.056;14.408;2023-06-05T02:09:29;97638.84;;;15.08;88.26
38912;BME280;28444;48.056;14.408;2023-06-05T02:12:22;97638.13;;;15.07;88.12
38912;BME280;28444;48.056;14.408;2023-06-05T02:15:13;97635.72;;;15.02;88.22
38912;BME280;28444;48.056;14.408;2023-06-05T02:18:02;97647.84;;;15.08;87.98
38912;BME280;28444;48.056;14.408;2023-06-05T02:20:54;97652.94;;;15.02;88.10
38912;BME280;28444;48.056;14.408;2023-06-05T02:23:42;97638.06;;;14.96;88.47
38912;BME280;28444;48.056;14.408;2023-06-05T02:26:30;97641.47;;;15.06;87.55
38912;BME280;28444;48.056;14.408;2023-06-05T02:29:17;97646.41;;;15.07;87.80
38912;BME280;28444;48.056;14.408;2023-06-05T02:32:05;97646.25;;;15.05;87.95
38912;BME280;28444;48.056;14.408;2023-06-05T02:34:53;97640.50;;;15.01;87.93
38912;BME280;28444;48.056;14.408;2023-06-05T02:37:40;97650.34;;;15.04;87.96
38912;BME280;28444;48.056;14.408;2023-06-05T02:40:31;97643.09;;;14.99;88.03
38912;BME280;28444;48.056;14.408;2023-06-05T02:43:18;97638.91;;;14.98;88.03
38912;BME280;28444;48.056;14.408;2023-06-05T02:46:06;97640.69;;;14.93;88.11
38912;BME280;28444;48.056;14.408;2023-06-05T02:48:53;97654.25;;;15.01;87.42
38912;BME280;28444;48.056;14.408;2023-06-05T02:51:40;97645.03;;;14.97;88.07
38912;BME280;28444;48.056;14.408;2023-06-05T02:54:27;97649.72;;;14.84;88.43
38912;BME280;28444;48.056;14.408;2023-06-05T02:57:15;97635.66;;;14.90;88.14
38912;BME280;28444;48.056;14.408;2023-06-05T03:00:04;97638.47;;;14.80;88.64
38912;BME280;28444;48.056;14.408;2023-06-05T03:02:54;97636.75;;;14.75;88.90
38912;BME280;28444;48.056;14.408;2023-06-05T03:05:43;97640.75;;;14.62;90.14
38912;BME280;28444;48.056;14.408;2023-06-05T03:08:31;97636.88;;;14.56;90.65
38912;BME280;28444;48.056;14.408;2023-06-05T03:11:19;97635.94;;;14.63;90.37
38912;BME280;28444;48.056;14.408;2023-06-05T03:14:07;97637.59;;;14.56;90.33
38912;BME280;28444;48.056;14.408;2023-06-05T03:16:54;97643.81;;;14.57;90.27
38912;BME280;28444;48.056;14.408;2023-06-05T03:19:41;97646.91;;;14.73;89.56
38912;BME280;28444;48.056;14.408;2023-06-05T03:22:28;97641.41;;;14.73;89.64
38912;BME280;28444;48.056;14.408;2023-06-05T03:25:15;97644.50;;;14.67;90.05
38912;BME280;28444;48.056;14.408;2023-06-05T03:28:02;97637.53;;;14.66;89.82
38912;BME280;28444;48.056;14.408;2023-06-05T03:30:49;97634.84;;;14.56;90.32
38912;BME280;28444;48.056;14.408;2023-06-05T03:33:36;97638.69;;;14.63;89.47
38912;BME280;28444;48.056;14.408;2023-06-05T03:36:23;97638.81;;;14.75;89.76
38912;BME280;28444;48.056;14.408;2023-06-05T03:39:10;97637.75;;;14.80;88.96
38912;BME280;28444;48.056;14.408;2023-06-05T03:41:58;97637.59;;;14.78;88.91
38912;BME280;28444;48.056;14.408;2023-06-05T03:44:47;97636.09;;;14.86;88.83
38912;BME280;28444;48.056;14.408;2023-06-05T03:47:34;97641.63;;;14.86;88.78
38912;BME280;28444;48.056;14.408;2023-06-05T03:50:21;97637.03;;;15.01;88.41
38912;BME280;28444;48.056;14.408;2023-06-05T03:53:10;97641.63;;;15.08;87.90
38912;BME280;28444;48.056;14.408;2023-06-05T03:56:00;97647.13;;;15.08;87.61
38912;BME280;28444;48.056;14.408;2023-06-05T03:58:47;97639.81;;;15.12;87.64
38912;BME280;28444;48.056;14.408;2023-06-05T04:01:35;97638.03;;;15.17;87.46
38912;BME280;28444;48.056;14.408;2023-06-05T04:04:25;97641.72;;;15.10;88.13
38912;BME280;28444;48.056;14.408;2023-06-05T04:07:12;97650.53;;;14.97;88.46
38912;BME280;28444;48.056;14.408;2023-06-05T04:09:59;97650.19;;;15.02;88.37
38912;BME280;28444;48.056;14.408;2023-06-05T04:12:46;97647.06;;;14.96;88.74
38912;BME280;28444;48.056;14.408;2023-06-05T04:15:33;97646.41;;;15.07;88.67
38912;BME280;28444;48.056;14.408;2023-06-05T04:18:20;97646.78;;;15.13;87.79
38912;BME280;28444;48.056;14.408;2023-06-05T04:21:07;97656.59;;;15.16;88.36
38912;BME280;28444;48.056;14.408;2023-06-05T04:23:54;97645.00;;;15.18;88.40
38912;BME280;28444;48.056;14.408;2023-06-05T04:26:42;97640.09;;;15.16;88.23
38912;BME280;28444;48.056;14.408;2023-06-05T04:29:29;97641.88;;;15.12;88.77
38912;BME280;28444;48.056;14.408;2023-06-05T04:32:19;97640.94;;;15.19;87.82
38912;BME280;28444;48.056;14.408;2023-06-05T04:35:09;97632.78;;;15.21;88.13
38912;BME280;28444;48.056;14.408;2023-06-05T04:37:57;97643.44;;;15.15;87.82
38912;BME280;28444;48.056;14.408;2023-06-05T04:40:44;97647.16;;;15.20;88.09
38912;BME280;28444;48.056;14.408;2023-06-05T04:43:32;97641.91;;;15.24;87.84
38912;BME280;28444;48.056;14.408;2023-06-05T04:46:19;97648.66;;;15.32;87.57
38912;BME280;28444;48.056;14.408;2023-06-05T04:49:06;97645.06;;;15.30;87.22
38912;BME280;28444;48.056;14.408;2023-06-05T04:51:53;97634.91;;;15.32;87.62
38912;BME280;28444;48.056;14.408;2023-06-05T04:54:43;97638.63;;;15.37;87.39
38912;BME280;28444;48.056;14.408;2023-06-05T04:57:30;97642.97;;;15.52;87.21
38912;BME280;28444;48.056;14.408;2023-06-05T05:00:18;97632.34;;;15.58;86.56
38912;BME280;28444;48.056;14.408;2023-06-05T05:03:05;97631.03;;;15.59;86.03
38912;BME280;28444;48.056;14.408;2023-06-05T05:05:52;97628.00;;;15.55;86.41
38912;BME280;28444;48.056;14.408;2023-06-05T05:08:38;97628.50;;;15.63;86.95
38912;BME280;28444;48.056;14.408;2023-06-05T05:11:25;97634.06;;;15.75;86.33
38912;BME280;28444;48.056;14.408;2023-06-05T05:14:13;97643.53;;;15.72;85.70
38912;BME280;28444;48.056;14.408;2023-06-05T05:17:00;97632.41;;;15.93;85.49
38912;BME280;28444;48.056;14.408;2023-06-05T05:19:51;97630.41;;;16.17;84.56
38912;BME280;28444;48.056;14.408;2023-06-05T05:22:38;97637.50;;;16.20;84.35
38912;BME280;28444;48.056;14.408;2023-06-05T05:25:25;97626.31;;;16.30;83.92
38912;BME280;28444;48.056;14.408;2023-06-05T05:28:13;97628.22;;;16.51;83.39
38912;BME280;28444;48.056;14.408;2023-06-05T05:31:00;97624.00;;;16.73;82.21
38912;BME280;28444;48.056;14.408;2023-06-05T05:33:47;97627.59;;;16.88;82.04
38912;BME280;28444;48.056;14.408;2023-06-05T05:36:34;97624.16;;;17.13;80.72
38912;BME280;28444;48.056;14.408;2023-06-05T05:39:23;97626.78;;;17.22;80.54
38912;BME280;28444;48.056;14.408;2023-06-05T05:42:10;97621.81;;;17.32;79.93
38912;BME280;28444;48.056;14.408;2023-06-05T05:44:57;97626.66;;;17.46;79.79
38912;BME280;28444;48.056;14.408;2023-06-05T05:47:44;97632.69;;;17.42;78.62
38912;BME280;28444;48.056;14.408;2023-06-05T05:50:31;97627.34;;;17.32;79.02
38912;BME280;28444;48.056;14.408;2023-06-05T05:53:18;97629.59;;;17.36;79.05
38912;BME280;28444;48.056;14.408;2023-06-05T05:56:06;97636.00;;;17.52;78.16
38912;BME280;28444;48.056;14.408;2023-06-05T05:58:53;97638.91;;;17.68;77.85
38912;BME280;28444;48.056;14.408;2023-06-05T06:01:40;97642.09;;;17.63;78.17
38912;BME280;28444;48.056;14.408;2023-06-05T06:04:27;97639.50;;;17.78;77.01
38912;BME280;28444;48.056;14.408;2023-06-05T06:07:15;97631.19;;;17.78;76.61
38912;BME280;28444;48.056;14.408;2023-06-05T06:10:03;97640.25;;;17.67;77.49
38912;BME280;28444;48.056;14.408;2023-06-05T06:12:50;97636.34;;;17.59;78.03
38912;BME280;28444;48.056;14.408;2023-06-05T06:15:37;97638.59;;;17.62;78.21
38912;BME280;28444;48.056;14.408;2023-06-05T06:18:25;97639.94;;;17.61;77.64
38912;BME280;28444;48.056;14.408;2023-06-05T06:21:13;97640.38;;;17.69;77.78
38912;BME280;28444;48.056;14.408;2023-06-05T06:24:00;97639.25;;;17.74;77.27
38912;BME280;28444;48.056;14.408;2023-06-05T06:26:48;97634.06;;;17.80;77.68
38912;BME280;28444;48.056;14.408;2023-06-05T06:29:41;97629.81;;;17.91;78.00
38912;BME280;28444;48.056;14.408;2023-06-05T06:32:32;97630.75;;;18.10;76.33
38912;BME280;28444;48.056;14.408;2023-06-05T06:35:19;97628.38;;;18.04;76.34
38912;BME280;28444;48.056;14.408;2023-06-05T06:38:07;97638.53;;;17.99;77.74
38912;BME280;28444;48.056;14.408;2023-06-05T06:40:54;97630.44;;;18.03;77.80
38912;BME280;28444;48.056;14.408;2023-06-05T06:43:40;97631.47;;;18.10;78.53
38912;BME280;28444;48.056;14.408;2023-06-05T06:46:28;97635.81;;;18.27;76.77
38912;BME280;28444;48.056;14.408;2023-06-05T06:49:15;97635.38;;;18.19;76.45
38912;BME280;28444;48.056;14.408;2023-06-05T06:52:02;97638.16;;;18.46;75.62
38912;BME280;28444;48.056;14.408;2023-06-05T06:54:49;97639.19;;;18.67;75.87
38912;BME280;28444;48.056;14.408;2023-06-05T06:57:37;97636.31;;;18.65;75.28
38912;BME280;28444;48.056;14.408;2023-06-05T07:00:24;97633.25;;;18.72;74.65
38912;BME280;28444;48.056;14.408;2023-06-05T07:03:11;97634.38;;;18.81;75.25
38912;BME280;28444;48.056;14.408;2023-06-05T07:05:58;97641.94;;;18.94;74.03
38912;BME280;28444;48.056;14.408;2023-06-05T07:08:45;97638.72;;;19.14;73.43
38912;BME280;28444;48.056;14.408;2023-06-05T07:11:32;97635.97;;;19.00;73.52
38912;BME280;28444;48.056;14.408;2023-06-05T07:14:19;97636.22;;;18.76;74.63
38912;BME280;28444;48.056;14.408;2023-06-05T07:17:07;97629.94;;;18.62;74.59
38912;BME280;28444;48.056;14.408;2023-06-05T07:19:54;97629.75;;;18.44;75.27
38912;BME280;28444;48.056;14.408;2023-06-05T07:22:43;97635.59;;;18.50;75.19
38912;BME280;28444;48.056;14.408;2023-06-05T07:25:31;97636.81;;;18.47;75.28
38912;BME280;28444;48.056;14.408;2023-06-05T07:28:18;97634.69;;;18.60;74.76
38912;BME280;28444;48.056;14.408;2023-06-05T07:31:05;97637.03;;;18.38;75.94
38912;BME280;28444;48.056;14.408;2023-06-05T07:33:52;97638.34;;;18.50;76.31
38912;BME280;28444;48.056;14.408;2023-06-05T07:36:39;97636.09;;;18.61;76.11
38912;BME280;28444;48.056;14.408;2023-06-05T07:39:26;97631.50;;;18.79;75.58
38912;BME280;28444;48.056;14.408;2023-06-05T07:42:14;97631.75;;;18.99;74.39
38912;BME280;28444;48.056;14.408;2023-06-05T07:45:02;97630.69;;;19.20;74.03
38912;BME280;28444;48.056;14.408;2023-06-05T07:47:49;97633.31;;;19.32;73.43
38912;BME280;28444;48.056;14.408;2023-06-05T07:50:36;97628.00;;;19.22;73.35
38912;BME280;28444;48.056;14.408;2023-06-05T07:53:23;97628.31;;;19.28;73.80
38912;BME280;28444;48.056;14.408;2023-06-05T07:56:10;97626.16;;;19.27;74.75
38912;BME280;28444;48.056;14.408;2023-06-05T07:59:03;97631.50;;;19.52;73.52
38912;BME280;28444;48.056;14.408;2023-06-05T08:01:50;97635.13;;;19.41;74.56
38912;BME280;28444;48.056;14.408;2023-06-05T08:04:37;97641.31;;;19.69;74.71
38912;BME280;28444;48.056;14.408;2023-06-05T08:07:26;97635.59;;;19.96;72.09
38912;BME280;28444;48.056;14.408;2023-06-05T08:10:13;97638.72;;;20.36;71.48
38912;BME280;28444;48.056;14.408;2023-06-05T08:13:00;97642.41;;;20.57;70.80
38912;BME280;28444;48.056;14.408;2023-06-05T08:15:47;97639.00;;;20.92;70.30
38912;BME280;28444;48.056;14.408;2023-06-05T08:18:34;97631.63;;;21.16;69.09
38912;BME280;28444;48.056;14.408;2023-06-05T08:21:21;97628.19;;;21.34;68.27
38912;BME280;28444;48.056;14.408;2023-06-05T08:24:08;97633.03;;;21.33;67.60
38912;BME280;28444;48.056;14.408;2023-06-05T08:26:55;97630.13;;;21.31;67.36
38912;BME280;28444;48.056;14.408;2023-06-05T08:29:42;97622.59;;;21.52;66.94
38912;BME280;28444;48.056;14.408;2023-06-05T08:32:29;97617.03;;;21.70;66.17
38912;BME280;28444;48.056;14.408;2023-06-05T08:35:16;97618.06;;;21.60;65.52
38912;BME280;28444;48.056;14.408;2023-06-05T08:38:03;97620.84;;;21.60;66.68
38912;BME280;28444;48.056;14.408;2023-06-05T08:40:56;97621.56;;;21.61;67.44
38912;BME280;28444;48.056;14.408;2023-06-05T08:43:45;97617.09;;;21.72;67.25
38912;BME280;28444;48.056;14.408;2023-06-05T08:46:36;97616.47;;;21.55;67.94
38912;BME280;28444;48.056;14.408;2023-06-05T08:49:28;97619.81;;;21.52;67.50
38912;BME280;28444;48.056;14.408;2023-06-05T08:52:25;97615.44;;;21.65;67.56
38912;BME280;28444;48.056;14.408;2023-06-05T08:55:12;97617.31;;;21.78;67.27
38912;BME280;28444;48.056;14.408;2023-06-05T08:57:59;97610.09;;;21.71;66.80
38912;BME280;28444;48.056;14.408;2023-06-05T09:00:46;97610.91;;;21.73;67.38
38912;BME280;28444;48.056;14.408;2023-06-05T09:03:35;97609.88;;;22.02;67.34
38912;BME280;28444;48.056;14.408;2023-06-05T09:06:22;97606.34;;;22.20;67.04
38912;BME280;28444;48.056;14.408;2023-06-05T09:09:10;97605.38;;;22.13;66.91
38912;BME280;28444;48.056;14.408;2023-06-05T09:12:04;97619.56;;;22.01;67.16
38912;BME280;28444;48.056;14.408;2023-06-05T09:14:52;97612.41;;;22.14;67.04
38912;BME280;28444;48.056;14.408;2023-06-05T09:17:41;97611.34;;;22.23;66.13
38912;BME280;28444;48.056;14.408;2023-06-05T09:20:29;97610.81;;;22.09;65.00
38912;BME280;28444;48.056;14.408;2023-06-05T09:23:26;97613.69;;;21.93;66.52
38912;BME280;28444;48.056;14.408;2023-06-05T09:26:14;97613.91;;;21.79;66.07
38912;BME280;28444;48.056;14.408;2023-06-05T09:29:02;97616.75;;;21.81;67.21
38912;BME280;28444;48.056;14.408;2023-06-05T09:31:51;97608.56;;;21.85;67.62
38912;BME280;28444;48.056;14.408;2023-06-05T09:34:39;97608.63;;;21.87;67.84
38912;BME280;28444;48.056;14.408;2023-06-05T09:37:34;97612.88;;;22.08;66.58
38912;BME280;28444;48.056;14.408;2023-06-05T09:40:36;97616.53;;;22.33;66.08
38912;BME280;28444;48.056;14.408;2023-06-05T09:43:24;97604.91;;;22.39;66.05
38912;BME280;28444;48.056;14.408;2023-06-05T09:46:12;97609.91;;;22.42;64.28
38912;BME280;28444;48.056;14.408;2023-06-05T09:49:00;97601.03;;;22.08;65.08
38912;BME280;28444;48.056;14.408;2023-06-05T09:51:47;97601.75;;;22.28;65.93
38912;BME280;28444;48.056;14.408;2023-06-05T09:54:36;97602.84;;;22.19;66.17
38912;BME280;28444;48.056;14.408;2023-06-05T09:57:24;97591.94;;;22.07;66.58
38912;BME280;28444;48.056;14.408;2023-06-05T10:00:12;97599.06;;;22.30;67.16
38912;BME280;28444;48.056;14.408;2023-06-05T10:03:05;97594.59;;;22.43;65.56
38912;BME280;28444;48.056;14.408;2023-06-05T10:05:54;97599.00;;;22.70;65.40
38912;BME280;28444;48.056;14.408;2023-06-05T10:08:48;97592.66;;;22.68;65.19
38912;BME280;28444;48.056;14.408;2023-06-05T10:11:35;97579.38;;;22.88;64.41
38912;BME280;28444;48.056;14.408;2023-06-05T10:14:22;97586.94;;;22.64;65.25
38912;BME280;28444;48.056;14.408;2023-06-05T10:17:11;97589.94;;;22.70;65.59
38912;BME280;28444;48.056;14.408;2023-06-05T10:19:59;97583.38;;;22.61;64.58
38912;BME280;28444;48.056;14.408;2023-06-05T10:22:49;97578.44;;;22.59;66.02
38912;BME280;28444;48.056;14.408;2023-06-05T10:25:37;97576.88;;;22.54;65.18
38912;BME280;28444;48.056;14.408;2023-06-05T10:28:57;97576.03;;;22.50;66.08
38912;BME280;28444;48.056;14.408;2023-06-05T10:31:53;97576.13;;;22.32;65.45
38912;BME280;28444;48.056;14.408;2023-06-05T10:40:53;97566.97;;;22.29;65.87
38912;BME280;28444;48.056;14.408;2023-06-05T10:43:52;97573.28;;;22.30;65.56
38912;BME280;28444;48.056;14.408;2023-06-05T10:46:39;97568.28;;;22.26;66.70
38912;BME280;28444;48.056;14.408;2023-06-05T10:49:27;97568.34;;;22.28;66.86
38912;BME280;28444;48.056;14.408;2023-06-05T10:52:35;97559.84;;;22.24;67.20
38912;BME280;28444;48.056;14.408;2023-06-05T10:55:23;97568.78;;;22.41;65.93
38912;BME280;28444;48.056;14.408;2023-06-05T10:58:11;97566.19;;;22.47;65.33
38912;BME280;28444;48.056;14.408;2023-06-05T11:01:17;97565.38;;;22.64;65.19
38912;BME280;28444;48.056;14.408;2023-06-05T11:04:06;97568.47;;;22.32;65.39
38912;BME280;28444;48.056;14.408;2023-06-05T11:07:15;97564.28;;;22.31;66.17
38912;BME280;28444;48.056;14.408;2023-06-05T11:10:17;97567.56;;;22.26;65.99
38912;BME280;28444;48.056;14.408;2023-06-05T11:13:07;97565.91;;;21.99;66.55
38912;BME280;28444;48.056;14.408;2023-06-05T11:15:54;97565.41;;;22.04;66.50
38912;BME280;28444;48.056;14.408;2023-06-05T11:18:43;97569.09;;;21.91;67.18
38912;BME280;28444;48.056;14.408;2023-06-05T11:22:10;97569.97;;;21.96;66.70
38912;BME280;28444;48.056;14.408;2023-06-05T11:28:04;97564.81;;;21.68;69.48
38912;BME280;28444;48.056;14.408;2023-06-05T11:30:53;97572.78;;;21.58;70.20
38912;BME280;28444;48.056;14.408;2023-06-05T11:33:40;97577.69;;;21.59;70.76
38912;BME280;28444;48.056;14.408;2023-06-05T11:36:28;97564.47;;;21.40;71.76
38912;BME280;28444;48.056;14.408;2023-06-05T11:39:16;97573.50;;;21.23;73.46
38912;BME280;28444;48.056;14.408;2023-06-05T11:42:03;97568.91;;;21.11;73.87
38912;BME280;28444;48.056;14.408;2023-06-05T11:44:50;97564.91;;;21.16;72.97
38912;BME280;28444;48.056;14.408;2023-06-05T11:47:38;97578.19;;;21.18;73.15
38912;BME280;28444;48.056;14.408;2023-06-05T11:50:25;97575.97;;;20.97;74.94
38912;BME280;28444;48.056;14.408;2023-06-05T11:53:17;97577.31;;;20.96;77.40
38912;BME280;28444;48.056;14.408;2023-06-05T11:56:12;97584.34;;;20.63;76.89
38912;BME280;28444;48.056;14.408;2023-06-05T11:59:01;97577.88;;;20.58;78.80
38912;BME280;28444;48.056;14.408;2023-06-05T12:01:48;97581.47;;;20.61;77.54
38912;BME280;28444;48.056;14.408;2023-06-05T12:04:40;97580.34;;;20.50;76.89
38912;BME280;28444;48.056;14.408;2023-06-05T12:07:29;97574.50;;;20.44;77.33
38912;BME280;28444;48.056;14.408;2023-06-05T12:10:18;97575.13;;;20.42;77.23
38912;BME280;28444;48.056;14.408;2023-06-05T12:13:06;97574.31;;;20.40;78.25
38912;BME280;28444;48.056;14.408;2023-06-05T12:15:57;97571.13;;;20.30;78.53
38912;BME280;28444;48.056;14.408;2023-06-05T12:18:45;97579.56;;;20.16;80.89
38912;BME280;28444;48.056;14.408;2023-06-05T12:21:32;97563.38;;;19.94;80.22
38912;BME280;28444;48.056;14.408;2023-06-05T12:24:26;97568.31;;;19.80;81.93
38912;BME280;28444;48.056;14.408;2023-06-05T12:27:13;97564.00;;;19.77;82.70
38912;BME280;28444;48.056;14.408;2023-06-05T12:30:00;97566.03;;;19.61;85.68
38912;BME280;28444;48.056;14.408;2023-06-05T12:32:47;97563.28;;;19.61;85.83
38912;BME280;28444;48.056;14.408;2023-06-05T12:35:35;97568.53;;;19.55;87.63
38912;BME280;28444;48.056;14.408;2023-06-05T12:38:22;97565.66;;;19.37;89.08
38912;BME280;28444;48.056;14.408;2023-06-05T12:41:10;97562.13;;;19.20;90.98
38912;BME280;28444;48.056;14.408;2023-06-05T12:44:01;97558.53;;;19.18;90.38
38912;BME280;28444;48.056;14.408;2023-06-05T12:46:50;97565.28;;;19.29;90.27
38912;BME280;28444;48.056;14.408;2023-06-05T12:49:37;97560.81;;;19.37;89.95
38912;BME280;28444;48.056;14.408;2023-06-05T12:52:27;97569.66;;;19.34;92.08
38912;BME280;28444;48.056;14.408;2023-06-05T12:55:14;97565.53;;;19.35;90.87
38912;BME280;28444;48.056;14.408;2023-06-05T12:58:01;97572.44;;;19.49;90.91
38912;BME280;28444;48.056;14.408;2023-06-05T13:00:48;97579.16;;;19.44;91.80
38912;BME280;28444;48.056;14.408;2023-06-05T13:03:35;97578.63;;;19.48;91.03
38912;BME280;28444;48.056;14.408;2023-06-05T13:06:23;97577.91;;;19.47;90.96
38912;BME280;28444;48.056;14.408;2023-06-05T13:09:10;97576.75;;;19.53;89.98
38912;BME280;28444;48.056;14.408;2023-06-05T13:11:57;97572.31;;;19.61;91.31
38912;BME280;28444;48.056;14.408;2023-06-05T13:14:47;97581.91;;;19.74;91.00
38912;BME280;28444;48.056;14.408;2023-06-05T13:17:34;97572.50;;;19.81;90.92
38912;BME280;28444;48.056;14.408;2023-06-05T13:20:22;97579.16;;;19.90;90.31
38912;BME280;28444;48.056;14.408;2023-06-05T13:23:09;97576.53;;;19.94;89.87
38912;BME280;28444;48.056;14.408;2023-06-05T13:25:58;97574.56;;;19.81;90.43
38912;BME280;28444;48.056;14.408;2023-06-05T13:28:45;97571.09;;;19.80;91.58
38912;BME280;28444;48.056;14.408;2023-06-05T13:31:32;97575.91;;;19.80;92.56
38912;BME280;28444;48.056;14.408;2023-06-05T13:34:19;97572.59;;;19.83;92.02
38912;BME280;28444;48.056;14.408;2023-06-05T13:37:06;97570.91;;;19.76;92.79
38912;BME280;28444;48.056;14.408;2023-06-05T13:40:00;97566.16;;;19.79;91.92
38912;BME280;28444;48.056;14.408;2023-06-05T13:42:49;97570.44;;;19.82;91.30
38912;BME280;28444;48.056;14.408;2023-06-05T13:45:38;97563.03;;;19.86;92.16
38912;BME280;28444;48.056;14.408;2023-06-05T13:48:25;97557.91;;;19.96;90.98
38912;BME280;28444;48.056;14.408;2023-06-05T13:51:11;97559.25;;;19.95;91.69
38912;BME280;28444;48.056;14.408;2023-06-05T13:53:58;97553.53;;;19.91;90.80
38912;BME280;28444;48.056;14.408;2023-06-05T13:56:45;97560.78;;;19.99;92.11
38912;BME280;28444;48.056;14.408;2023-06-05T13:59:32;97550.94;;;19.95;92.57
38912;BME280;28444;48.056;14.408;2023-06-05T14:02:19;97551.91;;;20.02;92.99
38912;BME280;28444;48.056;14.408;2023-06-05T14:05:07;97550.19;;;20.11;93.89
38912;BME280;28444;48.056;14.408;2023-06-05T14:08:00;97554.06;;;20.04;94.24
38912;BME280;28444;48.056;14.408;2023-06-05T14:10:47;97551.91;;;20.02;94.56
38912;BME280;28444;48.056;14.408;2023-06-05T14:13:35;97551.56;;;19.94;91.59
38912;BME280;28444;48.056;14.408;2023-06-05T14:16:22;97552.53;;;20.01;92.15
38912;BME280;28444;48.056;14.408;2023-06-05T14:19:09;97544.50;;;19.91;91.56
38912;BME280;28444;48.056;14.408;2023-06-05T14:21:56;97550.84;;;19.78;86.94
38912;BME280;28444;48.056;14.408;2023-06-05T14:24:43;97552.03;;;19.73;86.98
38912;BME280;28444;48.056;14.408;2023-06-05T14:27:30;97552.81;;;19.75;87.87
38912;BME280;28444;48.056;14.408;2023-06-05T14:30:17;97548.34;;;19.68;87.88
38912;BME280;28444;48.056;14.408;2023-06-05T14:33:04;97563.03;;;19.70;88.80
38912;BME280;28444;48.056;14.408;2023-06-05T14:35:51;97554.00;;;19.70;86.87
38912;BME280;28444;48.056;14.408;2023-06-05T14:38:38;97549.31;;;19.75;87.81
38912;BME280;28444;48.056;14.408;2023-06-05T14:41:25;97548.97;;;19.82;86.93
38912;BME280;28444;48.056;14.408;2023-06-05T14:44:12;97549.25;;;19.88;87.11
38912;BME280;28444;48.056;14.408;2023-06-05T14:47:09;97550.66;;;19.89;89.02
38912;BME280;28444;48.056;14.408;2023-06-05T14:49:56;97553.09;;;19.65;90.49
38912;BME280;28444;48.056;14.408;2023-06-05T14:52:43;97559.53;;;19.70;92.03
38912;BME280;28444;48.056;14.408;2023-06-05T14:55:30;97560.69;;;19.65;91.96
38912;BME280;28444;48.056;14.408;2023-06-05T14:58:17;97559.03;;;19.60;89.90